createdAt,value
2023-05-16T00:00:37.484Z,3.80
2023-05-16T00:03:05.747Z,4.10
2023-05-16T00:05:33.833Z,4.00
2023-05-16T00:08:00.649Z,4.10
2023-05-16T00:10:27.964Z,3.70
2023-05-16T00:12:57.060Z,4.00
2023-05-16T00:15:24.434Z,3.80
2023-05-16T00:17:52.222Z,3.90
2023-05-16T00:20:23.294Z,3.90
2023-05-16T00:22:50.755Z,3.80
2023-05-16T00:25:17.961Z,4.10
2023-05-16T00:27:44.962Z,4.00
2023-05-16T00:30:12.311Z,3.70
2023-05-16T00:32:39.334Z,3.30
2023-05-16T00:35:10.190Z,3.70
2023-05-16T00:37:38.089Z,3.80
2023-05-16T00:40:05.930Z,4.30
2023-05-16T00:42:33.180Z,3.70
2023-05-16T00:45:00.180Z,3.80
2023-05-16T00:47:28.625Z,4.00
2023-05-16T00:49:56.167Z,3.70
2023-05-16T00:52:24.239Z,3.80
2023-05-16T00:54:51.592Z,4.60
2023-05-16T00:57:19.051Z,3.60
2023-05-16T00:59:46.050Z,4.10
2023-05-16T01:02:13.875Z,4.20
2023-05-16T01:04:41.331Z,3.60
2023-05-16T01:07:08.408Z,3.80
2023-05-16T01:09:35.417Z,4.00
2023-05-16T01:12:25.914Z,4.30
2023-05-16T01:15:27.129Z,4.00
2023-05-16T01:18:17.479Z,3.70
2023-05-16T01:21:03.232Z,3.60
2023-05-16T01:24:24.743Z,4.20
2023-05-16T01:26:53.171Z,4.10
2023-05-16T01:29:20.028Z,3.60
2023-05-16T01:31:46.880Z,3.90
2023-05-16T01:34:13.602Z,4.00
2023-05-16T01:36:47.136Z,4.00
2023-05-16T01:39:34.873Z,3.60
2023-05-16T01:42:08.235Z,3.70
2023-05-16T01:44:35.996Z,3.60
2023-05-16T01:47:05.947Z,4.00
2023-05-16T01:49:38.627Z,3.60
2023-05-16T01:52:15.831Z,4.40
2023-05-16T01:54:46.008Z,3.50
2023-05-16T01:57:41.185Z,4.00
2023-05-16T02:00:08.742Z,3.50
2023-05-16T02:02:41.587Z,4.10
2023-05-16T02:05:09.301Z,3.50
2023-05-16T02:07:36.640Z,4.10
2023-05-16T02:10:04.453Z,3.80
2023-05-16T02:12:31.624Z,3.60
2023-05-16T02:14:58.736Z,3.60
2023-05-16T02:17:25.916Z,3.80
2023-05-16T02:19:52.903Z,3.80
2023-05-16T02:22:20.063Z,3.30
2023-05-16T02:24:47.015Z,4.30
2023-05-16T02:27:13.709Z,3.90
2023-05-16T02:29:40.384Z,3.70
2023-05-16T02:32:07.586Z,4.60
2023-05-16T02:34:34.397Z,4.00
2023-05-16T02:37:01.942Z,4.20
2023-05-16T02:39:29.564Z,4.20
2023-05-16T02:41:56.689Z,4.10
2023-05-16T02:44:23.353Z,3.60
2023-05-16T02:46:50.281Z,3.90
2023-05-16T02:49:17.177Z,3.70
2023-05-16T02:51:45.353Z,3.60
2023-05-16T02:54:12.403Z,3.60
2023-05-16T02:56:39.243Z,3.80
2023-05-16T02:59:06.015Z,3.90
2023-05-16T03:01:33.018Z,3.40
2023-05-16T03:04:00.103Z,3.80
2023-05-16T03:06:27.023Z,3.80
2023-05-16T03:08:53.778Z,3.40
2023-05-16T03:11:21.722Z,3.00
2023-05-16T03:13:48.682Z,3.10
2023-05-16T03:16:16.019Z,3.70
2023-05-16T03:19:14.536Z,3.30
2023-05-16T03:21:47.232Z,3.70
2023-05-16T03:24:14.305Z,2.90
2023-05-16T03:26:43.869Z,3.70
2023-05-16T03:29:11.609Z,3.80
2023-05-16T03:31:39.114Z,3.50
2023-05-16T03:34:06.357Z,3.80
2023-05-16T03:36:33.374Z,3.40
2023-05-16T03:39:18.679Z,3.40
2023-05-16T03:41:45.620Z,3.50
2023-05-16T03:44:12.330Z,2.70
2023-05-16T03:46:39.251Z,3.10
2023-05-16T03:49:05.951Z,3.40
2023-05-16T03:51:32.877Z,3.10
2023-05-16T03:53:59.803Z,3.50
2023-05-16T03:56:26.976Z,3.30
2023-05-16T03:58:53.922Z,3.30
2023-05-16T04:01:20.658Z,3.40
2023-05-16T04:03:47.501Z,3.20
2023-05-16T04:06:14.273Z,3.70
2023-05-16T04:08:44.359Z,3.00
2023-05-16T04:11:11.717Z,3.20
2023-05-16T04:13:40.878Z,3.50
2023-05-16T04:16:07.783Z,3.70
2023-05-16T04:18:34.658Z,3.40
2023-05-16T04:21:01.653Z,3.80
2023-05-16T04:23:28.508Z,3.00
2023-05-16T04:25:56.424Z,3.00
2023-05-16T04:28:23.158Z,3.00
2023-05-16T04:30:50.088Z,3.00
2023-05-16T04:33:18.102Z,3.50
2023-05-16T04:35:44.970Z,2.80
2023-05-16T04:38:12.220Z,2.60
2023-05-16T04:40:41.312Z,3.40
2023-05-16T04:43:08.377Z,3.50
2023-05-16T04:45:37.649Z,2.80
2023-05-16T04:48:04.954Z,3.20
2023-05-16T04:50:33.196Z,3.00
2023-05-16T04:52:59.902Z,3.60
2023-05-16T04:55:26.891Z,3.20
2023-05-16T04:57:53.941Z,4.10
2023-05-16T05:00:20.904Z,2.90
2023-05-16T05:02:50.100Z,3.50
2023-05-16T05:05:18.094Z,2.80
2023-05-16T05:07:46.009Z,3.30
2023-05-16T05:10:12.875Z,3.00
2023-05-16T05:12:40.321Z,3.50
2023-05-16T05:15:08.231Z,3.60
2023-05-16T05:17:35.249Z,2.90
2023-05-16T05:20:06.289Z,3.40
2023-05-16T05:22:33.265Z,3.20
2023-05-16T05:25:00.159Z,3.00
2023-05-16T05:27:27.169Z,3.30
2023-05-16T05:30:03.585Z,3.10
2023-05-16T05:32:32.515Z,3.50
2023-05-16T05:34:59.924Z,2.90
2023-05-16T05:37:27.281Z,3.40
2023-05-16T05:40:19.069Z,3.00
2023-05-16T05:43:02.366Z,3.90
2023-05-16T05:45:29.943Z,3.70
2023-05-16T05:47:57.095Z,3.40
2023-05-16T05:50:23.991Z,3.70
2023-05-16T05:52:50.934Z,4.00
2023-05-16T05:55:17.996Z,3.70
2023-05-16T05:57:44.931Z,3.40
2023-05-16T06:00:12.287Z,3.30
2023-05-16T06:02:39.928Z,3.90
2023-05-16T06:05:07.960Z,3.10
2023-05-16T06:07:34.870Z,3.50
2023-05-16T06:10:05.260Z,3.60
2023-05-16T06:12:32.858Z,3.90
2023-05-16T06:15:02.897Z,3.40
2023-05-16T06:17:39.281Z,3.70
2023-05-16T06:20:06.963Z,3.90
2023-05-16T06:22:34.559Z,3.40
2023-05-16T06:25:04.159Z,3.50
2023-05-16T06:27:37.780Z,3.80
2023-05-16T06:30:08.940Z,3.80
2023-05-16T06:32:36.734Z,3.70
2023-05-16T06:35:03.998Z,3.50
2023-05-16T06:37:34.484Z,3.60
2023-05-16T06:40:05.442Z,3.70
2023-05-16T06:43:13.840Z,3.90
2023-05-16T06:45:49.745Z,3.60
2023-05-16T06:48:22.396Z,3.30
2023-05-16T06:50:51.402Z,3.50
2023-05-16T06:53:18.241Z,4.00
2023-05-16T06:55:45.138Z,3.20
2023-05-16T06:58:14.690Z,3.60
2023-05-16T07:00:41.711Z,3.60
2023-05-16T07:03:08.756Z,3.30
2023-05-16T07:05:36.167Z,3.40
2023-05-16T07:08:04.583Z,3.50
2023-05-16T07:10:36.395Z,3.90
2023-05-16T07:13:04.519Z,3.70
2023-05-16T07:15:31.563Z,3.60
2023-05-16T07:17:58.468Z,4.10
2023-05-16T07:20:35.715Z,3.60
2023-05-16T07:23:02.606Z,3.50
2023-05-16T07:25:29.860Z,3.10
2023-05-16T07:27:57.054Z,3.00
2023-05-16T07:30:24.374Z,3.20
2023-05-16T07:32:51.434Z,3.50
2023-05-16T07:35:18.593Z,3.30
2023-05-16T07:37:45.657Z,3.20
2023-05-16T07:40:13.199Z,3.20
2023-05-16T07:42:40.375Z,3.50
2023-05-16T07:45:07.759Z,4.00
2023-05-16T07:47:35.457Z,3.80
2023-05-16T07:50:02.392Z,4.30
2023-05-16T07:52:29.574Z,4.40
2023-05-16T07:54:56.962Z,4.30
2023-05-16T07:57:32.990Z,4.20
2023-05-16T08:00:00.132Z,4.00
2023-05-16T08:02:30.138Z,3.90
2023-05-16T08:17:18.884Z,4.10
2023-05-16T08:19:46.247Z,4.20
2023-05-16T08:22:13.255Z,4.00
2023-05-16T08:24:40.811Z,4.30
2023-05-16T08:27:18.649Z,4.40
2023-05-16T08:29:45.912Z,4.90
2023-05-16T08:32:13.055Z,4.60
2023-05-16T08:34:40.277Z,4.80
2023-05-16T08:37:08.950Z,4.60
2023-05-16T08:39:35.941Z,4.50
2023-05-16T08:42:24.285Z,4.70
2023-05-16T08:45:00.406Z,4.70
2023-05-16T08:47:27.421Z,4.90
2023-05-16T08:49:54.549Z,4.90
2023-05-16T08:52:21.596Z,4.70
2023-05-16T08:55:01.965Z,4.90
2023-05-16T08:57:37.427Z,4.30
2023-05-16T09:00:11.274Z,5.00
2023-05-16T09:02:42.176Z,4.70
2023-05-16T09:05:11.145Z,4.50
2023-05-16T09:07:40.316Z,4.70
2023-05-16T09:10:10.907Z,4.50
2023-05-16T09:12:39.803Z,4.60
2023-05-16T09:15:07.778Z,5.00
2023-05-16T09:17:39.964Z,5.20
2023-05-16T09:20:15.581Z,5.10
2023-05-16T09:22:54.816Z,4.50
2023-05-16T09:25:30.272Z,4.90
2023-05-16T09:28:02.868Z,4.60
2023-05-16T09:30:32.031Z,4.60
2023-05-16T09:33:06.601Z,4.30
2023-05-16T09:38:03.265Z,4.30
2023-05-16T09:40:30.289Z,3.70
2023-05-16T09:43:09.775Z,4.50
2023-05-16T09:46:05.037Z,3.70
2023-05-16T09:48:32.957Z,3.40
2023-05-16T09:54:12.620Z,3.70
2023-05-16T09:57:04.801Z,3.90
2023-05-16T10:00:21.884Z,3.70
2023-05-16T10:03:14.761Z,3.80
2023-05-16T10:05:44.952Z,2.90
2023-05-16T10:08:23.674Z,3.50
2023-05-16T10:10:52.219Z,2.90
2023-05-16T10:14:10.275Z,3.20
2023-05-16T10:16:39.347Z,3.60
2023-05-16T10:19:09.727Z,3.60
2023-05-16T10:21:40.458Z,3.00
2023-05-16T10:24:07.512Z,3.10
2023-05-16T10:26:50.904Z,2.80
2023-05-16T10:29:17.958Z,2.90
2023-05-16T10:31:45.384Z,3.70
2023-05-16T10:34:12.450Z,3.30
2023-05-16T10:36:39.441Z,2.90
2023-05-16T10:39:06.689Z,3.20
2023-05-16T10:41:34.454Z,3.20
2023-05-16T10:44:02.261Z,3.40
2023-05-16T10:46:29.978Z,3.20
2023-05-16T10:48:58.591Z,3.20
2023-05-16T10:51:31.963Z,3.30
2023-05-16T10:54:04.867Z,3.30
2023-05-16T10:56:32.407Z,3.80
2023-05-16T10:58:59.150Z,3.20
2023-05-16T11:02:16.729Z,3.50
2023-05-16T11:04:49.058Z,3.50
2023-05-16T11:07:17.879Z,3.70
2023-05-16T11:09:45.202Z,3.90
2023-05-16T11:12:12.554Z,3.10
2023-05-16T11:14:42.096Z,3.40
2023-05-16T11:17:20.455Z,3.40
2023-05-16T11:19:48.852Z,3.60
2023-05-16T11:22:18.571Z,3.20
2023-05-16T11:24:55.746Z,3.40
2023-05-16T11:27:25.636Z,3.30
2023-05-16T11:29:53.451Z,3.80
2023-05-16T11:32:23.161Z,3.60
2023-05-16T11:34:51.419Z,3.50
2023-05-16T11:37:19.603Z,3.60
2023-05-16T11:39:46.816Z,3.50
2023-05-16T11:42:14.034Z,3.50
2023-05-16T11:44:40.866Z,3.30
2023-05-16T11:47:08.218Z,3.80
2023-05-16T11:49:35.712Z,3.40
2023-05-16T11:52:03.937Z,3.90
2023-05-16T11:54:31.875Z,3.50
2023-05-16T11:56:59.520Z,3.80
2023-05-16T11:59:26.503Z,3.80
2023-05-16T12:01:53.499Z,3.90
2023-05-16T12:04:20.697Z,4.00
2023-05-16T12:06:59.376Z,3.90
2023-05-16T12:09:26.121Z,3.30
2023-05-16T12:11:53.253Z,3.70
2023-05-16T12:14:20.801Z,3.90
2023-05-16T12:16:48.697Z,4.10
2023-05-16T12:19:15.748Z,3.80
2023-05-16T12:21:42.539Z,5.40
2023-05-16T12:24:12.365Z,6.40
2023-05-16T12:26:40.114Z,6.10
2023-05-16T12:29:11.124Z,5.10
2023-05-16T12:32:33.009Z,5.30
2023-05-16T12:35:04.098Z,5.70
2023-05-16T12:37:31.075Z,6.50
2023-05-16T12:40:05.712Z,5.70
2023-05-16T12:42:35.790Z,4.40
2023-05-16T12:45:02.779Z,4.10
2023-05-16T12:47:37.738Z,4.40
2023-05-16T12:50:11.004Z,4.50
2023-05-16T12:52:37.777Z,4.10
2023-05-16T12:55:05.447Z,4.10
2023-05-16T12:57:33.800Z,3.60
2023-05-16T13:00:01.622Z,3.40
2023-05-16T13:02:28.732Z,3.50
2023-05-16T13:04:55.753Z,3.20
2023-05-16T13:07:22.799Z,3.10
2023-05-16T13:09:49.747Z,3.50
2023-05-16T13:12:16.585Z,3.60
2023-05-16T13:14:44.656Z,3.20
2023-05-16T13:17:11.563Z,3.40
2023-05-16T13:19:55.505Z,3.60
2023-05-16T13:22:22.659Z,2.90
2023-05-16T13:24:49.549Z,3.10
2023-05-16T13:27:17.299Z,2.80
2023-05-16T13:29:44.233Z,3.10
2023-05-16T13:32:11.902Z,3.20
2023-05-16T13:34:38.980Z,3.00
2023-05-16T13:37:06.262Z,3.70
2023-05-16T13:39:33.245Z,3.40
2023-05-16T13:42:00.069Z,3.50
2023-05-16T13:44:27.186Z,3.00
2023-05-16T13:46:54.005Z,3.40
2023-05-16T13:49:21.827Z,2.90
2023-05-16T13:51:48.917Z,3.10
2023-05-16T13:54:17.182Z,3.20
2023-05-16T13:56:44.849Z,3.20
2023-05-16T13:59:15.400Z,3.20
2023-05-16T14:01:47.809Z,2.80
2023-05-16T14:04:15.174Z,3.10
2023-05-16T14:06:42.050Z,2.90
2023-05-16T14:09:09.124Z,3.70
2023-05-16T14:11:36.045Z,4.80
2023-05-16T14:14:02.847Z,4.20
2023-05-16T14:16:30.618Z,4.20
2023-05-16T14:20:01.230Z,2.90
2023-05-16T14:22:34.494Z,2.90
2023-05-16T14:25:01.340Z,2.90
2023-05-16T14:27:28.480Z,3.00
2023-05-16T14:29:55.809Z,3.30
2023-05-16T14:32:23.039Z,2.90
2023-05-16T14:34:50.339Z,3.60
2023-05-16T14:37:18.170Z,3.00
2023-05-16T14:40:14.040Z,3.10
2023-05-16T14:42:40.982Z,3.40
2023-05-16T14:45:08.141Z,3.40
2023-05-16T14:47:35.965Z,3.50
2023-05-16T14:50:02.944Z,3.10
2023-05-16T14:52:30.267Z,2.90
2023-05-16T14:54:57.186Z,2.90
2023-05-16T14:57:24.203Z,3.60
2023-05-16T14:59:51.770Z,3.10
2023-05-16T15:04:54.900Z,3.00
2023-05-16T15:19:02.166Z,2.80
2023-05-16T15:21:29.314Z,2.50
2023-05-16T15:23:56.501Z,2.90
2023-05-16T15:26:23.423Z,2.70
2023-05-16T15:28:52.842Z,2.80
2023-05-16T15:31:19.835Z,2.70
2023-05-16T15:33:48.410Z,2.80
2023-05-16T15:36:15.678Z,2.70
2023-05-16T15:38:45.684Z,2.70
2023-05-16T15:41:27.205Z,3.20
2023-05-16T15:44:01.025Z,3.50
2023-05-16T15:46:28.006Z,2.90
2023-05-16T15:48:54.862Z,3.00
2023-05-16T15:51:21.783Z,3.00
2023-05-16T15:53:48.914Z,2.60
2023-05-16T15:56:16.251Z,3.20
2023-05-16T15:58:46.677Z,3.50
2023-05-16T16:01:13.731Z,3.90
2023-05-16T16:03:41.160Z,3.40
2023-05-16T16:06:08.427Z,3.80
2023-05-16T16:08:36.162Z,3.30
2023-05-16T16:11:03.676Z,3.30
2023-05-16T16:13:31.390Z,3.30
2023-05-16T16:15:58.601Z,3.50
2023-05-16T16:18:25.501Z,3.10
2023-05-16T16:20:53.254Z,3.60
2023-05-16T16:23:20.497Z,3.60
2023-05-16T16:25:47.407Z,3.20
2023-05-16T16:28:14.263Z,3.50
2023-05-16T16:30:41.599Z,3.60
2023-05-16T16:33:08.694Z,3.70
2023-05-16T16:35:35.873Z,3.70
2023-05-16T16:38:07.238Z,3.60
2023-05-16T16:40:35.784Z,3.60
2023-05-16T16:43:06.054Z,3.60
2023-05-16T16:45:33.270Z,3.50
2023-05-16T16:48:00.229Z,3.40
2023-05-16T16:50:27.318Z,3.80
2023-05-16T16:52:54.983Z,3.80
2023-05-16T16:55:22.233Z,3.90
2023-05-16T16:57:49.260Z,4.20
2023-05-16T17:00:16.558Z,3.90
2023-05-16T17:02:43.707Z,3.60
2023-05-16T17:05:10.962Z,4.10
2023-05-16T17:07:37.984Z,3.90
2023-05-16T17:10:05.902Z,4.00
2023-05-16T17:12:34.844Z,3.60
2023-05-16T17:15:02.319Z,3.70
2023-05-16T17:17:29.560Z,3.10
2023-05-16T17:19:56.946Z,3.20
2023-05-16T17:22:23.996Z,3.80
2023-05-16T17:24:51.272Z,3.40
2023-05-16T17:27:18.435Z,3.50
2023-05-16T17:29:45.412Z,3.80
2023-05-16T17:32:14.404Z,3.10
2023-05-16T17:34:41.608Z,4.00
2023-05-16T17:37:10.679Z,4.10
2023-05-16T17:39:37.566Z,2.80
2023-05-16T17:42:05.897Z,3.70
2023-05-16T17:44:32.824Z,3.90
2023-05-16T17:46:59.909Z,3.40
2023-05-16T17:49:27.191Z,3.30
2023-05-16T17:51:55.014Z,3.10
2023-05-16T17:54:22.406Z,3.90
2023-05-16T17:56:50.576Z,4.00
2023-05-16T17:59:17.656Z,4.00
2023-05-16T18:01:44.587Z,3.30
2023-05-16T18:04:11.946Z,3.60
2023-05-16T18:06:39.056Z,3.50
2023-05-16T18:09:07.415Z,3.70
2023-05-16T18:11:34.537Z,3.60
2023-05-16T18:14:02.143Z,3.60
2023-05-16T18:16:30.529Z,2.90
2023-05-16T18:19:00.843Z,4.10
2023-05-16T18:21:27.771Z,3.80
2023-05-16T18:23:55.600Z,3.90
2023-05-16T18:26:24.578Z,4.00
2023-05-16T18:28:51.563Z,4.20
2023-05-16T18:31:18.688Z,4.30
2023-05-16T18:33:45.714Z,3.80
2023-05-16T18:36:12.586Z,4.20
2023-05-16T18:38:39.493Z,3.80
2023-05-16T18:41:06.490Z,4.40
2023-05-16T18:43:36.792Z,4.00
2023-05-16T18:46:04.393Z,4.00
2023-05-16T18:48:32.439Z,4.00
2023-05-16T18:51:01.458Z,4.20
2023-05-16T18:53:28.358Z,3.60
2023-05-16T18:55:56.150Z,4.80
2023-05-16T18:58:23.150Z,3.90
2023-05-16T19:00:50.490Z,3.90
2023-05-16T19:03:17.705Z,4.20
2023-05-16T19:05:45.254Z,4.20
2023-05-16T19:08:12.167Z,3.70
2023-05-16T19:10:42.164Z,4.00
2023-05-16T19:13:09.169Z,3.90
2023-05-16T19:15:36.300Z,4.40
2023-05-16T19:18:05.635Z,4.30
2023-05-16T19:20:35.945Z,4.50
2023-05-16T19:23:03.635Z,3.90
2023-05-16T19:25:30.891Z,4.10
2023-05-16T19:27:58.412Z,4.50
2023-05-16T19:30:25.544Z,3.70
2023-05-16T19:32:54.784Z,4.10
2023-05-16T19:35:22.117Z,4.10
2023-05-16T19:37:49.073Z,5.10
2023-05-16T19:40:17.453Z,4.50
2023-05-16T19:42:44.552Z,5.20
2023-05-16T19:45:11.955Z,4.50
2023-05-16T19:47:39.076Z,4.60
2023-05-16T19:50:07.131Z,4.50
2023-05-16T19:52:34.215Z,4.50
2023-05-16T19:55:01.235Z,4.20
2023-05-16T19:57:28.488Z,4.20
2023-05-16T19:59:55.569Z,4.20
2023-05-16T20:02:24.481Z,4.80
2023-05-16T20:04:51.916Z,4.10
2023-05-16T20:07:19.076Z,4.30
2023-05-16T20:09:46.125Z,4.30
2023-05-16T20:12:13.576Z,4.00
2023-05-16T20:14:40.667Z,4.00
2023-05-16T20:17:07.682Z,4.50
2023-05-16T20:19:36.606Z,4.70
2023-05-16T20:22:03.782Z,3.40
2023-05-16T20:24:30.689Z,4.30
2023-05-16T20:26:57.613Z,4.10
2023-05-16T20:29:24.472Z,4.30
2023-05-16T20:31:51.484Z,4.30
2023-05-16T20:34:18.413Z,3.90
2023-05-16T20:36:45.372Z,4.60
2023-05-16T20:39:12.432Z,4.80
2023-05-16T20:41:39.269Z,4.80
2023-05-16T20:44:06.923Z,4.30
2023-05-16T20:46:33.880Z,4.30
2023-05-16T20:49:00.931Z,4.30
2023-05-16T20:51:28.004Z,4.20
2023-05-16T20:53:54.986Z,4.30
2023-05-16T20:56:22.468Z,4.70
2023-05-16T20:58:49.397Z,4.60
2023-05-16T21:01:16.305Z,4.30
2023-05-16T21:03:43.192Z,4.40
2023-05-16T21:06:10.073Z,6.20
2023-05-16T21:08:37.340Z,6.20
2023-05-16T21:11:04.156Z,6.80
2023-05-16T21:13:31.351Z,6.40
2023-05-16T21:15:58.405Z,6.30
2023-05-16T21:18:25.370Z,5.10
2023-05-16T21:20:52.274Z,5.70
2023-05-16T21:23:19.523Z,5.30
2023-05-16T21:25:46.465Z,6.10
2023-05-16T21:28:13.293Z,5.00
2023-05-16T21:30:40.258Z,5.30
2023-05-16T21:33:07.349Z,4.70
2023-05-16T21:35:34.327Z,4.60
2023-05-16T21:38:01.445Z,4.60
2023-05-16T21:40:29.029Z,4.60
2023-05-16T21:42:55.929Z,4.80
2023-05-16T21:45:22.957Z,4.20
2023-05-16T21:47:49.947Z,4.50
2023-05-16T21:50:18.348Z,5.10
2023-05-16T21:52:45.336Z,4.70
2023-05-16T21:55:12.435Z,4.70
2023-05-16T21:57:39.681Z,5.50
2023-05-16T22:00:09.535Z,5.10
2023-05-16T22:02:36.670Z,5.40
2023-05-16T22:05:04.015Z,5.20
2023-05-16T22:07:31.839Z,4.90
2023-05-16T22:09:59.072Z,5.50
2023-05-16T22:12:26.873Z,5.40
2023-05-16T22:14:53.855Z,5.80
2023-05-16T22:17:20.841Z,4.40
2023-05-16T22:19:47.874Z,4.90
2023-05-16T22:22:15.061Z,5.50
2023-05-16T22:24:42.170Z,4.10
2023-05-16T22:27:09.005Z,5.30
2023-05-16T22:29:38.377Z,6.50
2023-05-16T22:32:09.385Z,5.30
2023-05-16T22:34:39.627Z,5.80
2023-05-16T22:37:10.111Z,6.20
2023-05-16T22:39:37.009Z,5.30
2023-05-16T22:42:04.343Z,6.10
2023-05-16T22:44:31.295Z,5.70
2023-05-16T22:46:58.208Z,5.90
2023-05-16T22:49:25.104Z,4.90
2023-05-16T22:51:51.995Z,5.00
2023-05-16T22:54:18.868Z,5.10
2023-05-16T22:56:45.884Z,5.50
2023-05-16T22:59:12.735Z,5.80
2023-05-16T23:01:39.616Z,5.60
2023-05-16T23:04:06.589Z,5.50
2023-05-16T23:06:33.724Z,5.50
2023-05-16T23:09:02.956Z,5.40
2023-05-16T23:11:33.971Z,5.30
2023-05-16T23:14:01.448Z,4.40
2023-05-16T23:16:28.338Z,5.20
2023-05-16T23:18:55.461Z,5.10
2023-05-16T23:21:22.332Z,5.20
2023-05-16T23:23:49.170Z,5.20
2023-05-16T23:26:16.115Z,5.10
2023-05-16T23:28:43.504Z,4.70
2023-05-16T23:31:10.370Z,4.90
2023-05-16T23:33:37.243Z,4.90
2023-05-16T23:36:04.464Z,5.30
2023-05-16T23:38:31.359Z,5.10
2023-05-16T23:40:58.361Z,5.20
2023-05-16T23:43:25.205Z,5.00
2023-05-16T23:45:52.144Z,4.30
2023-05-16T23:48:19.133Z,4.40
2023-05-16T23:50:45.994Z,4.60
2023-05-16T23:53:12.905Z,5.30
2023-05-16T23:55:39.776Z,4.80
2023-05-16T23:58:06.780Z,5.00
